Time;durP1;ratioP1;P1;durP2;ratioP2;P2;SDS_P1;SDS_P2;PMS_P1;PMS_P2;Temp;Humidity;BMP_temperature;BMP_pressure;BME280_temperature;BME280_humidity;BME280_pressure;Samples;Min_cycle;Max_cycle;Signal;HPM_P1;HPM_P2
2021/11/13 00:02:05;;;;;;;60.33;44.95;;;;;;;;;;5118174;27;20411;-79
2021/11/13 00:04:32;;;;;;;63.13;44.37;;;;;;;;;;5123618;27;20874;-82
2021/11/13 00:06:59;;;;;;;58.97;44.28;;;;;;;;;;5121172;27;20409;-81
2021/11/13 00:09:27;;;;;;;60.53;44.92;;;;;;;;;;5120866;27;21235;-82
2021/11/13 00:11:54;;;;;;;61.50;44.50;;;;;;;;;;5125428;27;20400;-81
2021/11/13 00:14:21;;;;;;;62.03;45.10;;;;;;;;;;5124909;27;20399;-82
2021/11/13 00:16:48;;;;;;;58.45;43.58;;;;;;;;;;5127012;27;20404;-81
2021/11/13 00:19:16;;;;;;;63.85;44.85;;;;;;;;;;5117730;27;20403;-82
2021/11/13 00:21:42;;;;;;;67.65;46.03;;;;;;;;;;5122221;27;21203;-82
2021/11/13 00:24:10;;;;;;;64.63;45.05;;;;;;;;;;5119108;27;20403;-81
2021/11/13 00:26:38;;;;;;;61.75;45.85;;;;;;;;;;5122827;27;20399;-80
2021/11/13 00:29:05;;;;;;;60.83;44.28;;;;;;;;;;5120349;27;20401;-81
2021/11/13 00:31:33;;;;;;;64.17;44.93;;;;;;;;;;5120483;27;20900;-81
2021/11/13 00:34:00;;;;;;;61.97;44.40;;;;;;;;;;5125364;27;20509;-82
2021/11/13 00:36:27;;;;;;;63.92;45.08;;;;;;;;;;5119473;27;20410;-82
2021/11/13 00:38:54;;;;;;;61.33;44.53;;;;;;;;;;5122613;28;20399;-82
2021/11/13 00:41:21;;;;;;;62.63;44.42;;;;;;;;;;5118461;28;20456;-81
2021/11/13 00:43:50;;;;;;;63.30;45.03;;;;;;;;;;5123555;28;20401;-81
2021/11/13 00:46:17;;;;;;;57.60;43.30;;;;;;;;;;5119061;28;20398;-82
2021/11/13 00:48:44;;;;;;;59.58;43.15;;;;;;;;;;5125057;28;20873;-82
2021/11/13 00:51:10;;;;;;;61.55;44.00;;;;;;;;;;5122597;27;20400;-82
2021/11/13 00:53:37;;;;;;;57.95;42.95;;;;;;;;;;5119512;28;20399;-82
2021/11/13 00:56:05;;;;;;;59.67;42.85;;;;;;;;;;5122255;28;20400;-82
2021/11/13 00:58:31;;;;;;;56.63;42.13;;;;;;;;;;5118271;28;20763;-82
2021/11/13 01:01:00;;;;;;;57.65;42.67;;;;;;;;;;5123243;28;20792;-82
2021/11/13 01:03:27;;;;;;;56.17;40.45;;;;;;;;;;5119741;28;20413;-82
2021/11/13 01:05:54;;;;;;;53.97;39.83;;;;;;;;;;5120812;28;20412;-82
2021/11/13 01:08:21;;;;;;;55.33;40.22;;;;;;;;;;5120616;27;20391;-82
2021/11/13 01:10:48;;;;;;;53.17;40.35;;;;;;;;;;5119365;28;20396;-82
2021/11/13 01:13:15;;;;;;;58.03;39.63;;;;;;;;;;5124002;27;20393;-82
2021/11/13 01:15:42;;;;;;;54.53;39.92;;;;;;;;;;5125569;27;20724;-82
2021/11/13 01:18:11;;;;;;;54.83;39.22;;;;;;;;;;5129496;27;20473;-82
2021/11/13 01:20:38;;;;;;;55.13;40.15;;;;;;;;;;5128276;27;20729;-82
2021/11/13 01:23:05;;;;;;;57.38;37.97;;;;;;;;;;5127154;27;20403;-82
2021/11/13 01:25:32;;;;;;;52.20;37.53;;;;;;;;;;5126722;27;20504;-82
2021/11/13 01:27:59;;;;;;;53.75;37.33;;;;;;;;;;5129070;27;20923;-81
2021/11/13 01:30:26;;;;;;;56.97;38.63;;;;;;;;;;5123807;27;20749;-82
2021/11/13 01:32:53;;;;;;;53.42;37.55;;;;;;;;;;5125829;27;20404;-81
2021/11/13 01:35:22;;;;;;;52.17;38.23;;;;;;;;;;5133508;27;20400;-82
2021/11/13 01:37:50;;;;;;;54.83;37.90;;;;;;;;;;5125973;27;20412;-82
2021/11/13 01:40:19;;;;;;;52.38;36.60;;;;;;;;;;5125790;27;20403;-81
2021/11/13 01:42:49;;;;;;;50.95;36.55;;;;;;;;;;5121820;27;20390;-81
2021/11/13 01:45:18;;;;;;;54.58;36.42;;;;;;;;;;5120296;27;20405;-82
2021/11/13 01:47:46;;;;;;;51.15;37.33;;;;;;;;;;5123064;27;20400;-82
2021/11/13 01:50:15;;;;;;;53.35;36.17;;;;;;;;;;5122710;27;20398;-82
2021/11/13 01:52:44;;;;;;;50.10;35.92;;;;;;;;;;5122369;27;20398;-82
2021/11/13 01:55:12;;;;;;;48.03;34.90;;;;;;;;;;5121563;27;20396;-81
2021/11/13 01:57:46;;;;;;;50.03;36.17;;;;;;;;;;5118491;27;20417;-82
2021/11/13 02:00:18;;;;;;;50.97;35.47;;;;;;;;;;5126465;27;20511;-81
2021/11/13 02:02:45;;;;;;;48.90;34.75;;;;;;;;;;5140403;27;20390;-81
2021/11/13 02:05:13;;;;;;;50.78;35.92;;;;;;;;;;5136671;27;20397;-82
2021/11/13 02:07:39;;;;;;;54.55;37.25;;;;;;;;;;5122867;27;20400;-82
2021/11/13 02:10:09;;;;;;;53.13;38.10;;;;;;;;;;5120793;27;20398;-81
2021/11/13 02:12:36;;;;;;;52.50;37.75;;;;;;;;;;5121195;27;20828;-81
2021/11/13 02:15:04;;;;;;;52.35;36.75;;;;;;;;;;5120506;27;20389;-82
2021/11/13 02:17:31;;;;;;;51.17;37.40;;;;;;;;;;5118924;27;20939;-82
2021/11/13 02:20:16;;;;;;;53.20;36.13;;;;;;;;;;5124297;27;20393;-82
2021/11/13 02:22:43;;;;;;;51.58;36.80;;;;;;;;;;5117573;27;20399;-82
2021/11/13 02:25:10;;;;;;;55.17;36.35;;;;;;;;;;5120979;27;20388;-82
2021/11/13 02:27:36;;;;;;;53.77;37.50;;;;;;;;;;5121141;27;20397;-82
2021/11/13 02:30:04;;;;;;;52.05;35.50;;;;;;;;;;5120951;27;20400;-82
2021/11/13 02:32:30;;;;;;;50.73;35.17;;;;;;;;;;5119291;27;20436;-82
2021/11/13 02:34:59;;;;;;;47.75;34.40;;;;;;;;;;5121488;27;20409;-82
2021/11/13 02:37:28;;;;;;;48.20;34.80;;;;;;;;;;5123835;27;20408;-82
2021/11/13 02:39:55;;;;;;;47.38;34.22;;;;;;;;;;5116643;27;20448;-82
2021/11/13 02:42:22;;;;;;;49.08;34.53;;;;;;;;;;5120439;27;20391;-82
2021/11/13 02:44:50;;;;;;;50.53;34.70;;;;;;;;;;5116658;27;20395;-81
2021/11/13 02:47:18;;;;;;;49.70;33.67;;;;;;;;;;5119069;27;20411;-82
2021/11/13 02:49:47;;;;;;;49.45;34.05;;;;;;;;;;5123987;27;20636;-82
2021/11/13 02:52:15;;;;;;;47.95;34.05;;;;;;;;;;5120064;27;21168;-82
2021/11/13 02:54:44;;;;;;;46.30;33.70;;;;;;;;;;5118999;27;20881;-82
2021/11/13 02:57:10;;;;;;;47.40;33.70;;;;;;;;;;5119451;27;20428;-82
2021/11/13 02:59:42;;;;;;;47.65;33.53;;;;;;;;;;5119609;27;20401;-82
2021/11/13 03:02:08;;;;;;;49.33;34.55;;;;;;;;;;5109953;27;20867;-81
2021/11/13 03:04:36;;;;;;;48.85;34.80;;;;;;;;;;5109386;27;20412;-82
2021/11/13 03:07:03;;;;;;;50.53;36.00;;;;;;;;;;5108711;28;20401;-81
2021/11/13 03:09:31;;;;;;;49.30;35.10;;;;;;;;;;5108069;27;20759;-81
2021/11/13 03:11:58;;;;;;;48.47;35.50;;;;;;;;;;5108485;28;20937;-81
2021/11/13 03:14:25;;;;;;;49.33;34.30;;;;;;;;;;5113085;27;20411;-82
2021/11/13 03:16:53;;;;;;;48.03;34.43;;;;;;;;;;5113422;27;20395;-81
2021/11/13 03:19:20;;;;;;;48.15;33.45;;;;;;;;;;5111234;27;20429;-81
2021/11/13 03:21:46;;;;;;;50.78;34.45;;;;;;;;;;5108060;28;20410;-81
2021/11/13 03:24:14;;;;;;;48.55;34.17;;;;;;;;;;5108364;28;20430;-81
2021/11/13 03:26:42;;;;;;;50.78;33.47;;;;;;;;;;5108254;28;20406;-82
2021/11/13 03:29:12;;;;;;;49.35;34.58;;;;;;;;;;5108039;28;20433;-81
2021/11/13 03:31:39;;;;;;;46.60;33.83;;;;;;;;;;5108646;27;20763;-82
2021/11/13 03:34:06;;;;;;;49.63;35.70;;;;;;;;;;5112603;27;20409;-82
2021/11/13 03:36:33;;;;;;;48.53;34.10;;;;;;;;;;5107966;28;20489;-82
2021/11/13 03:39:00;;;;;;;50.15;34.53;;;;;;;;;;5107168;28;20487;-81
2021/11/13 03:41:28;;;;;;;51.33;34.58;;;;;;;;;;5108001;28;20401;-81
2021/11/13 03:43:56;;;;;;;48.08;33.67;;;;;;;;;;5108947;27;20403;-80
2021/11/13 03:46:23;;;;;;;43.55;32.55;;;;;;;;;;5128327;27;20431;-81
2021/11/13 03:48:51;;;;;;;51.97;33.28;;;;;;;;;;5123217;27;20412;-80
2021/11/13 03:51:19;;;;;;;46.38;33.80;;;;;;;;;;5107178;28;20395;-81
2021/11/13 03:53:46;;;;;;;47.83;33.40;;;;;;;;;;5107678;28;20739;-80
2021/11/13 03:56:13;;;;;;;47.20;32.33;;;;;;;;;;5107374;28;20862;-81
2021/11/13 03:58:39;;;;;;;47.05;32.92;;;;;;;;;;5107933;27;20410;-82
2021/11/13 04:01:08;;;;;;;47.97;33.10;;;;;;;;;;5107213;28;20390;-82
2021/11/13 04:03:35;;;;;;;47.72;32.75;;;;;;;;;;5107314;28;20406;-82
2021/11/13 04:06:01;;;;;;;45.60;32.47;;;;;;;;;;5106741;28;20386;-82
2021/11/13 04:08:28;;;;;;;47.90;32.97;;;;;;;;;;5107209;28;20402;-82
2021/11/13 04:10:55;;;;;;;49.72;34.08;;;;;;;;;;5107330;28;20408;-82
2021/11/13 04:13:22;;;;;;;49.88;34.13;;;;;;;;;;5106577;28;20402;-82
2021/11/13 04:15:49;;;;;;;51.87;33.30;;;;;;;;;;5119095;27;20400;-82
2021/11/13 04:18:17;;;;;;;46.78;32.35;;;;;;;;;;5111206;27;20434;-82
2021/11/13 04:20:44;;;;;;;48.67;33.60;;;;;;;;;;5107346;28;20481;-82
2021/11/13 04:23:11;;;;;;;50.35;33.40;;;;;;;;;;5106533;28;20399;-82
2021/11/13 04:25:38;;;;;;;47.95;32.95;;;;;;;;;;5106998;28;20893;-82
2021/11/13 04:28:05;;;;;;;46.58;33.80;;;;;;;;;;5106456;28;20399;-81
2021/11/13 04:30:32;;;;;;;45.90;32.42;;;;;;;;;;5107369;28;20782;-80
2021/11/13 04:32:59;;;;;;;48.88;33.50;;;;;;;;;;5117933;27;20408;-82
2021/11/13 04:35:46;;;;;;;50.22;33.50;;;;;;;;;;5107421;28;20402;-82
2021/11/13 04:38:13;;;;;;;47.95;33.45;;;;;;;;;;5120989;28;20440;-82
2021/11/13 04:40:39;;;;;;;46.30;32.63;;;;;;;;;;5106877;28;20403;-82
2021/11/13 04:43:06;;;;;;;46.92;32.92;;;;;;;;;;5119386;28;20408;-82
2021/11/13 04:45:34;;;;;;;47.88;31.58;;;;;;;;;;5123183;27;20420;-82
2021/11/13 04:48:01;;;;;;;46.58;33.15;;;;;;;;;;5121935;28;20406;-82
2021/11/13 04:50:29;;;;;;;48.33;32.90;;;;;;;;;;5108709;28;20398;-81
2021/11/13 04:52:57;;;;;;;47.50;31.67;;;;;;;;;;5125345;27;20394;-82
2021/11/13 04:55:23;;;;;;;46.15;32.60;;;;;;;;;;5110851;27;20390;-82
2021/11/13 04:57:50;;;;;;;49.08;33.65;;;;;;;;;;5110836;28;20403;-82
2021/11/13 05:00:21;;;;;;;49.20;34.03;;;;;;;;;;5110608;28;20398;-82
2021/11/13 05:02:48;;;;;;;54.17;35.00;;;;;;;;;;5123788;27;20397;-81
2021/11/13 05:05:15;;;;;;;52.55;35.80;;;;;;;;;;5111592;27;20417;-82
2021/11/13 05:07:44;;;;;;;51.38;35.05;;;;;;;;;;5121320;27;20397;-82
2021/11/13 05:10:12;;;;;;;51.35;35.65;;;;;;;;;;5146159;27;20388;-81
2021/11/13 05:12:39;;;;;;;54.22;36.05;;;;;;;;;;5145608;27;20376;-81
2021/11/13 05:15:08;;;;;;;57.05;36.97;;;;;;;;;;5130631;27;20388;-82
2021/11/13 05:17:35;;;;;;;56.65;37.60;;;;;;;;;;5125281;27;20894;-82
2021/11/13 05:20:03;;;;;;;55.92;38.00;;;;;;;;;;5129080;27;20421;-82
2021/11/13 05:22:30;;;;;;;59.83;37.45;;;;;;;;;;5130578;27;20393;-82
2021/11/13 05:24:58;;;;;;;55.42;37.30;;;;;;;;;;5128580;27;20401;-82
2021/11/13 05:27:25;;;;;;;53.78;38.30;;;;;;;;;;5130035;27;20397;-82
2021/11/13 05:29:55;;;;;;;56.80;39.42;;;;;;;;;;5129639;27;20396;-82
2021/11/13 05:32:21;;;;;;;58.67;39.30;;;;;;;;;;5128728;27;20400;-82
2021/11/13 05:34:48;;;;;;;56.25;38.90;;;;;;;;;;5129798;27;20415;-82
2021/11/13 05:37:15;;;;;;;52.90;38.15;;;;;;;;;;5129669;27;20400;-82
2021/11/13 05:39:42;;;;;;;56.50;38.80;;;;;;;;;;5130684;27;20408;-82
2021/11/13 05:42:10;;;;;;;55.08;37.63;;;;;;;;;;5130529;27;20400;-82
2021/11/13 05:44:37;;;;;;;57.75;38.33;;;;;;;;;;5123225;27;20903;-82
2021/11/13 05:47:05;;;;;;;55.65;38.40;;;;;;;;;;5125564;27;20396;-82
2021/11/13 05:49:31;;;;;;;54.80;38.15;;;;;;;;;;5128142;27;20399;-82
2021/11/13 05:51:58;;;;;;;54.95;37.58;;;;;;;;;;5127424;27;20396;-81
2021/11/13 05:54:25;;;;;;;56.05;38.47;;;;;;;;;;5122702;27;20883;-82
2021/11/13 05:56:52;;;;;;;51.83;36.13;;;;;;;;;;5127046;27;20892;-82
2021/11/13 05:59:20;;;;;;;52.78;37.60;;;;;;;;;;5123473;27;21055;-82
2021/11/13 06:01:47;;;;;;;57.95;38.60;;;;;;;;;;5128633;27;20393;-82
2021/11/13 06:04:14;;;;;;;54.95;37.45;;;;;;;;;;5123967;27;20450;-82
2021/11/13 06:06:41;;;;;;;56.10;36.10;;;;;;;;;;5128982;27;20396;-82
2021/11/13 06:09:08;;;;;;;54.13;37.60;;;;;;;;;;5127585;27;20393;-82
2021/11/13 06:11:35;;;;;;;49.60;35.50;;;;;;;;;;5125626;27;20385;-82
2021/11/13 06:14:02;;;;;;;50.42;35.53;;;;;;;;;;5118907;27;20850;-82
2021/11/13 06:16:30;;;;;;;50.13;35.60;;;;;;;;;;5125868;27;20393;-82
2021/11/13 06:18:57;;;;;;;52.65;36.40;;;;;;;;;;5116378;27;20413;-82
2021/11/13 06:21:24;;;;;;;54.78;36.15;;;;;;;;;;5116380;27;21049;-82
2021/11/13 06:23:51;;;;;;;52.47;36.15;;;;;;;;;;5110856;27;20413;-82
2021/11/13 06:26:19;;;;;;;49.93;34.60;;;;;;;;;;5114509;27;20397;-82
2021/11/13 06:28:46;;;;;;;48.92;34.67;;;;;;;;;;5110615;27;20400;-83
2021/11/13 06:31:13;;;;;;;48.80;34.00;;;;;;;;;;5111184;27;20398;-81
2021/11/13 06:33:42;;;;;;;49.95;33.33;;;;;;;;;;5111900;27;20413;-81
2021/11/13 06:36:09;;;;;;;48.13;32.35;;;;;;;;;;5111400;27;20399;-82
2021/11/13 06:38:36;;;;;;;48.20;32.70;;;;;;;;;;4867662;28;2272685;-82
2021/11/13 06:41:03;;;;;;;47.47;33.13;;;;;;;;;;5074129;28;20394;-82
2021/11/13 06:43:29;;;;;;;46.17;33.15;;;;;;;;;;5080128;28;20396;-81
2021/11/13 06:45:56;;;;;;;50.10;33.20;;;;;;;;;;5011816;28;20402;-82
2021/11/13 06:48:24;;;;;;;50.40;34.13;;;;;;;;;;5077123;28;20806;-82
2021/11/13 06:50:53;;;;;;;46.22;31.92;;;;;;;;;;5066363;28;20554;-81
2021/11/13 06:53:20;;;;;;;49.28;33.65;;;;;;;;;;5086054;28;20890;-82
2021/11/13 06:55:47;;;;;;;49.47;32.95;;;;;;;;;;5079082;28;20481;-82
2021/11/13 06:58:14;;;;;;;48.88;32.88;;;;;;;;;;5085927;28;20479;-82
2021/11/13 07:00:41;;;;;;;50.45;33.40;;;;;;;;;;5083748;28;20417;-82
2021/11/13 07:03:07;;;;;;;48.63;32.92;;;;;;;;;;5084483;28;20408;-82
2021/11/13 07:05:34;;;;;;;49.40;33.85;;;;;;;;;;5085248;28;20884;-82
2021/11/13 07:08:04;;;;;;;48.47;34.38;;;;;;;;;;5085405;28;20762;-83
2021/11/13 07:10:32;;;;;;;52.13;34.47;;;;;;;;;;5085397;28;20828;-82
2021/11/13 07:12:59;;;;;;;49.65;34.65;;;;;;;;;;5083016;28;20397;-82
2021/11/13 07:15:31;;;;;;;48.58;33.53;;;;;;;;;;5085230;28;20404;-82
2021/11/13 07:17:58;;;;;;;49.45;34.58;;;;;;;;;;5080777;28;20400;-83
2021/11/13 07:20:25;;;;;;;49.78;34.05;;;;;;;;;;5084921;28;20416;-82
2021/11/13 07:22:52;;;;;;;51.45;35.10;;;;;;;;;;5082136;28;20473;-83
2021/11/13 07:25:22;;;;;;;49.80;34.55;;;;;;;;;;5085827;28;20404;-82
2021/11/13 07:27:49;;;;;;;50.42;34.92;;;;;;;;;;5085207;28;20430;-82
2021/11/13 07:30:19;;;;;;;52.43;35.63;;;;;;;;;;5081961;28;20400;-82
2021/11/13 07:32:46;;;;;;;52.67;36.10;;;;;;;;;;5084759;28;20408;-82
2021/11/13 07:35:13;;;;;;;52.17;35.45;;;;;;;;;;5085583;28;20408;-83
2021/11/13 07:37:40;;;;;;;51.97;37.05;;;;;;;;;;5085687;28;20407;-83
2021/11/13 07:40:09;;;;;;;52.90;37.88;;;;;;;;;;5083069;28;20431;-83
2021/11/13 07:42:37;;;;;;;57.22;40.53;;;;;;;;;;5086353;28;20396;-83
2021/11/13 07:45:07;;;;;;;57.80;39.05;;;;;;;;;;5081624;28;20787;-83
2021/11/13 07:47:35;;;;;;;56.50;38.97;;;;;;;;;;5076720;28;20773;-83
2021/11/13 07:50:02;;;;;;;58.10;39.65;;;;;;;;;;5074868;28;20473;-83
2021/11/13 07:52:29;;;;;;;57.58;39.70;;;;;;;;;;5077645;28;20401;-83
2021/11/13 07:54:55;;;;;;;62.20;42.03;;;;;;;;;;5077997;28;20403;-83
2021/11/13 07:57:22;;;;;;;61.93;43.73;;;;;;;;;;5082957;28;20400;-83
2021/11/13 07:59:51;;;;;;;67.97;46.22;;;;;;;;;;5077266;28;20420;-82
2021/11/13 08:02:17;;;;;;;66.40;46.72;;;;;;;;;;5077613;28;20407;-83
2021/11/13 08:04:44;;;;;;;66.13;46.10;;;;;;;;;;5077120;28;20412;-83
2021/11/13 08:07:11;;;;;;;59.50;42.88;;;;;;;;;;5077439;28;20406;-83
2021/11/13 08:09:38;;;;;;;67.63;45.67;;;;;;;;;;5077194;28;21112;-83
2021/11/13 08:12:05;;;;;;;67.45;47.25;;;;;;;;;;5076876;28;20449;-83
2021/11/13 08:14:32;;;;;;;68.75;49.90;;;;;;;;;;5074839;28;20407;-83
2021/11/13 08:17:00;;;;;;;70.68;49.17;;;;;;;;;;5078171;28;20879;-83
2021/11/13 08:19:27;;;;;;;78.43;51.25;;;;;;;;;;5081163;28;20416;-83
2021/11/13 08:21:54;;;;;;;75.07;51.05;;;;;;;;;;5100741;28;20391;-82
2021/11/13 08:24:21;;;;;;;75.45;52.22;;;;;;;;;;5098242;28;20384;-83
2021/11/13 08:26:48;;;;;;;74.07;53.28;;;;;;;;;;5078053;28;20694;-82
2021/11/13 08:29:15;;;;;;;76.82;52.40;;;;;;;;;;5074939;28;20396;-82
2021/11/13 08:31:42;;;;;;;75.90;52.75;;;;;;;;;;5079839;28;20407;-83
2021/11/13 08:34:10;;;;;;;75.97;52.30;;;;;;;;;;5079706;28;20416;-83
2021/11/13 08:36:39;;;;;;;71.07;50.88;;;;;;;;;;5073157;28;21417;-83
2021/11/13 08:39:08;;;;;;;74.85;52.05;;;;;;;;;;5078172;28;20400;-83
2021/11/13 08:41:35;;;;;;;76.03;52.47;;;;;;;;;;5078446;28;20407;-83
2021/11/13 08:44:02;;;;;;;75.57;53.38;;;;;;;;;;5075030;28;20920;-82
2021/11/13 08:46:29;;;;;;;77.53;54.00;;;;;;;;;;5077130;28;20396;-82
2021/11/13 08:48:57;;;;;;;77.05;55.72;;;;;;;;;;5075573;28;20463;-82
2021/11/13 08:51:25;;;;;;;78.50;55.38;;;;;;;;;;5081923;28;20760;-83
2021/11/13 08:53:54;;;;;;;78.57;55.87;;;;;;;;;;5078213;28;20392;-83
2021/11/13 08:56:22;;;;;;;78.68;54.80;;;;;;;;;;5072365;28;20452;-83
2021/11/13 08:58:49;;;;;;;78.22;56.47;;;;;;;;;;5076904;28;20660;-83
2021/11/13 09:01:16;;;;;;;81.07;56.97;;;;;;;;;;5076858;28;20893;-82
2021/11/13 09:03:43;;;;;;;81.40;55.10;;;;;;;;;;5079125;28;20408;-83
2021/11/13 09:06:13;;;;;;;80.90;57.33;;;;;;;;;;5079222;28;20405;-82
2021/11/13 09:08:41;;;;;;;81.32;57.38;;;;;;;;;;5084126;28;20400;-82
2021/11/13 09:11:11;;;;;;;78.72;55.60;;;;;;;;;;5084773;28;20399;-82
2021/11/13 09:13:38;;;;;;;77.30;56.20;;;;;;;;;;5083341;28;20834;-81
2021/11/13 09:16:10;;;;;;;77.77;55.97;;;;;;;;;;5075632;28;20388;-81
2021/11/13 09:18:39;;;;;;;78.97;55.60;;;;;;;;;;5073734;28;20406;-81
2021/11/13 09:21:07;;;;;;;76.10;55.15;;;;;;;;;;5073237;28;20934;-81
2021/11/13 09:23:35;;;;;;;78.57;54.88;;;;;;;;;;5073272;28;20394;-81
2021/11/13 09:26:06;;;;;;;79.85;55.55;;;;;;;;;;5072225;28;20396;-81
2021/11/13 09:28:33;;;;;;;74.65;53.05;;;;;;;;;;5079456;28;20400;-80
2021/11/13 09:31:01;;;;;;;71.70;51.95;;;;;;;;;;5083141;28;20407;-79
2021/11/13 09:33:28;;;;;;;73.15;51.00;;;;;;;;;;5075830;28;20400;-82
2021/11/13 09:35:56;;;;;;;71.32;52.15;;;;;;;;;;5084429;28;20944;-81
2021/11/13 09:38:25;;;;;;;73.00;50.65;;;;;;;;;;5087145;28;20412;-83
2021/11/13 09:40:53;;;;;;;72.82;51.92;;;;;;;;;;5086432;28;20420;-83
2021/11/13 09:43:23;;;;;;;74.43;52.87;;;;;;;;;;5080103;28;20907;-82
2021/11/13 09:45:51;;;;;;;82.07;55.72;;;;;;;;;;5078874;28;20426;-82
2021/11/13 09:48:19;;;;;;;80.35;57.78;;;;;;;;;;5085082;28;20412;-82
2021/11/13 09:50:49;;;;;;;76.38;55.55;;;;;;;;;;5080315;28;20409;-82
2021/11/13 09:53:17;;;;;;;77.63;55.47;;;;;;;;;;5087733;28;20400;-82
2021/11/13 09:55:44;;;;;;;78.55;54.72;;;;;;;;;;5087613;28;20399;-82
2021/11/13 09:58:11;;;;;;;80.60;55.15;;;;;;;;;;5085585;28;20397;-82
2021/11/13 10:00:42;;;;;;;77.47;54.05;;;;;;;;;;5086280;28;20469;-82
2021/11/13 10:03:10;;;;;;;79.75;54.47;;;;;;;;;;5086702;28;20771;-82
2021/11/13 10:05:37;;;;;;;80.88;56.10;;;;;;;;;;5079787;28;20631;-82
2021/11/13 10:08:04;;;;;;;78.53;55.57;;;;;;;;;;5081585;28;20412;-82
2021/11/13 10:10:34;;;;;;;79.50;55.65;;;;;;;;;;5083625;28;20397;-82
2021/11/13 10:13:02;;;;;;;78.55;56.28;;;;;;;;;;5082484;28;20402;-82
2021/11/13 10:15:31;;;;;;;80.28;56.38;;;;;;;;;;5082811;28;20411;-81
2021/11/13 10:18:13;;;;;;;78.63;55.28;;;;;;;;;;5078538;28;20415;-82
2021/11/13 10:20:42;;;;;;;76.05;56.58;;;;;;;;;;5082237;28;20416;-82
2021/11/13 10:23:10;;;;;;;79.15;54.95;;;;;;;;;;5081262;28;20404;-82
2021/11/13 10:25:37;;;;;;;78.38;55.60;;;;;;;;;;5083217;28;20398;-82
2021/11/13 10:28:13;;;;;;;79.28;56.17;;;;;;;;;;5080419;28;20573;-80
2021/11/13 10:30:42;;;;;;;76.65;56.10;;;;;;;;;;5081261;28;20400;-82
2021/11/13 10:33:11;;;;;;;83.65;60.08;;;;;;;;;;5082339;28;20466;-82
2021/11/13 10:35:46;;;;;;;93.78;70.55;;;;;;;;;;5079958;28;20843;-82
2021/11/13 10:38:14;;;;;;;83.93;62.55;;;;;;;;;;5082288;28;20407;-82
2021/11/13 10:40:52;;;;;;;81.97;58.67;;;;;;;;;;5084093;28;20485;-82
2021/11/13 10:43:20;;;;;;;85.43;67.70;;;;;;;;;;5084554;28;20756;-82
2021/11/13 10:46:01;;;;;;;83.05;60.22;;;;;;;;;;5077236;28;20400;-82
2021/11/13 10:48:30;;;;;;;82.28;58.22;;;;;;;;;;5077002;28;20496;-82
2021/11/13 10:51:12;;;;;;;78.97;56.88;;;;;;;;;;5080998;28;20457;-81
2021/11/13 10:53:40;;;;;;;82.93;57.83;;;;;;;;;;5079654;28;20400;-82
2021/11/13 10:56:14;;;;;;;106.67;78.70;;;;;;;;;;5081854;28;20403;-81
2021/11/13 10:58:45;;;;;;;86.00;60.33;;;;;;;;;;5081796;28;20402;-81
2021/11/13 11:01:28;;;;;;;84.77;59.27;;;;;;;;;;5080301;28;20396;-81
2021/11/13 11:04:05;;;;;;;89.75;63.70;;;;;;;;;;5074802;28;20478;-82
2021/11/13 11:06:37;;;;;;;85.07;60.42;;;;;;;;;;5079485;28;20392;-81
2021/11/13 11:09:28;;;;;;;87.80;59.30;;;;;;;;;;5084865;28;20401;-81
2021/11/13 11:11:57;;;;;;;101.30;80.55;;;;;;;;;;5075518;28;20404;-81
2021/11/13 11:14:28;;;;;;;92.82;68.50;;;;;;;;;;5079658;28;20408;-82
2021/11/13 11:16:57;;;;;;;86.53;62.97;;;;;;;;;;5083381;28;20478;-82
2021/11/13 11:19:28;;;;;;;87.87;62.90;;;;;;;;;;5082011;28;20899;-81
2021/11/13 11:22:04;;;;;;;86.73;60.97;;;;;;;;;;5080869;28;20424;-82
2021/11/13 11:24:34;;;;;;;92.15;61.97;;;;;;;;;;5078990;28;20405;-81
2021/11/13 11:27:05;;;;;;;85.57;60.90;;;;;;;;;;5083995;28;20899;-80
2021/11/13 11:29:35;;;;;;;84.32;59.85;;;;;;;;;;5081161;28;20412;-82
2021/11/13 11:32:06;;;;;;;81.78;58.55;;;;;;;;;;5078344;28;20413;-82
2021/11/13 11:34:37;;;;;;;86.57;61.45;;;;;;;;;;5082611;28;20408;-82
2021/11/13 11:37:11;;;;;;;82.93;59.08;;;;;;;;;;5082127;28;20397;-83
2021/11/13 11:39:38;;;;;;;89.95;64.63;;;;;;;;;;5080513;28;20455;-82
2021/11/13 11:42:08;;;;;;;88.18;62.15;;;;;;;;;;5078406;28;20426;-82
2021/11/13 11:44:37;;;;;;;87.40;62.20;;;;;;;;;;5079528;28;20491;-82
2021/11/13 11:47:11;;;;;;;83.63;61.53;;;;;;;;;;5079702;28;20412;-82
2021/11/13 11:49:44;;;;;;;89.05;61.35;;;;;;;;;;5081023;28;20802;-81
2021/11/13 11:52:13;;;;;;;85.38;62.55;;;;;;;;;;5075655;28;20412;-80
2021/11/13 11:54:40;;;;;;;95.47;63.10;;;;;;;;;;5080648;28;20926;-81
2021/11/13 11:57:08;;;;;;;88.97;62.83;;;;;;;;;;5082713;28;20407;-81
2021/11/13 11:59:37;;;;;;;89.65;61.25;;;;;;;;;;5084553;28;20869;-80
2021/11/13 12:02:07;;;;;;;93.95;68.75;;;;;;;;;;5100284;28;20393;-82
2021/11/13 12:04:34;;;;;;;89.55;61.90;;;;;;;;;;5085434;28;20384;-74
2021/11/13 12:07:07;;;;;;;92.28;66.15;;;;;;;;;;5080472;28;20412;-88
2021/11/13 12:09:34;;;;;;;90.88;63.53;;;;;;;;;;5076181;28;20427;-74
2021/11/13 12:12:16;;;;;;;88.57;63.53;;;;;;;;;;5081236;28;20408;-77
2021/11/13 12:14:44;;;;;;;91.95;66.05;;;;;;;;;;5073669;28;20404;-77
2021/11/13 12:17:29;;;;;;;197.88;134.68;;;;;;;;;;5071854;28;20480;-82
2021/11/13 12:20:25;;;;;;;566.33;320.95;;;;;;;;;;5073468;28;20405;-82
2021/11/13 12:23:01;;;;;;;126.88;82.00;;;;;;;;;;5071447;28;20413;-82
2021/11/13 12:25:31;;;;;;;146.13;107.43;;;;;;;;;;5071450;28;20397;-82
2021/11/13 12:28:19;;;;;;;115.38;78.63;;;;;;;;;;5079375;28;20444;-81
2021/11/13 12:30:58;;;;;;;138.73;90.85;;;;;;;;;;5082731;28;20388;-79
2021/11/13 12:33:55;;;;;;;98.72;68.90;;;;;;;;;;5075018;28;20404;-79
2021/11/13 12:36:32;;;;;;;94.55;66.63;;;;;;;;;;5033241;28;20481;-79
2021/11/13 12:39:10;;;;;;;91.50;64.97;;;;;;;;;;5035355;28;20407;-79
2021/11/13 12:41:52;;;;;;;100.87;68.63;;;;;;;;;;5042652;28;20680;-79
2021/11/13 12:44:44;;;;;;;95.93;68.70;;;;;;;;;;5039911;28;20409;-78
2021/11/13 12:47:19;;;;;;;94.10;67.88;;;;;;;;;;5031610;28;20394;-79
2021/11/13 12:49:57;;;;;;;99.28;71.43;;;;;;;;;;5042290;28;20403;-79
2021/11/13 12:52:42;;;;;;;92.32;66.32;;;;;;;;;;5040004;28;20881;-79
2021/11/13 12:55:29;;;;;;;89.55;63.95;;;;;;;;;;5041119;28;20403;-78
2021/11/13 12:58:20;;;;;;;94.05;65.30;;;;;;;;;;5034255;28;20864;-78
2021/11/13 13:00:52;;;;;;;98.10;65.35;;;;;;;;;;5031606;28;20413;-79
2021/11/13 13:03:26;;;;;;;95.45;66.25;;;;;;;;;;5040964;28;20419;-77
2021/11/13 13:06:04;;;;;;;95.72;65.55;;;;;;;;;;5029275;28;20743;-78
2021/11/13 13:08:34;;;;;;;93.57;64.40;;;;;;;;;;5038539;28;20494;-79
2021/11/13 13:11:07;;;;;;;92.38;63.25;;;;;;;;;;5039331;28;20465;-79
2021/11/13 13:13:39;;;;;;;88.82;61.78;;;;;;;;;;5046092;28;20777;-80
2021/11/13 13:16:09;;;;;;;95.15;65.25;;;;;;;;;;5036643;28;21087;-80
2021/11/13 13:18:40;;;;;;;89.05;63.00;;;;;;;;;;5034724;28;20428;-82
2021/11/13 13:21:17;;;;;;;92.22;63.22;;;;;;;;;;5040318;28;20429;-83
2021/11/13 13:23:47;;;;;;;91.28;64.32;;;;;;;;;;5037690;28;20412;-82
2021/11/13 13:26:21;;;;;;;91.43;64.53;;;;;;;;;;5036214;28;20487;-82
2021/11/13 13:28:52;;;;;;;91.68;63.55;;;;;;;;;;5031590;28;20405;-83
2021/11/13 13:31:21;;;;;;;96.27;64.20;;;;;;;;;;5033047;28;20419;-83
2021/11/13 13:33:55;;;;;;;93.30;64.15;;;;;;;;;;5037808;28;20408;-83
2021/11/13 13:36:25;;;;;;;98.57;66.63;;;;;;;;;;5077610;28;20405;-83
2021/11/13 13:38:56;;;;;;;96.18;65.43;;;;;;;;;;5082100;28;20888;-82
2021/11/13 13:41:28;;;;;;;100.75;67.43;;;;;;;;;;5071559;28;20424;-82
2021/11/13 13:43:58;;;;;;;93.03;65.50;;;;;;;;;;5075913;28;20403;-82
2021/11/13 13:46:31;;;;;;;101.03;69.38;;;;;;;;;;5077016;28;20392;-77
2021/11/13 13:49:02;;;;;;;98.05;68.85;;;;;;;;;;5080891;28;20402;-78
2021/11/13 13:51:34;;;;;;;100.43;70.70;;;;;;;;;;5076200;28;20437;-80
2021/11/13 13:54:09;;;;;;;98.70;69.68;;;;;;;;;;5080112;28;20392;-82
2021/11/13 13:56:44;;;;;;;102.72;72.53;;;;;;;;;;5080718;28;20412;-80
2021/11/13 13:59:23;;;;;;;103.28;71.45;;;;;;;;;;5083078;28;20404;-79
2021/11/13 14:01:58;;;;;;;90.82;66.22;;;;;;;;;;5081001;28;20440;-77
2021/11/13 14:04:31;;;;;;;93.13;65.63;;;;;;;;;;5081534;28;21073;-78
2021/11/13 14:07:15;;;;;;;91.60;63.42;;;;;;;;;;5081062;28;20481;-78
2021/11/13 14:09:46;;;;;;;90.35;63.47;;;;;;;;;;5081830;28;20872;-82
2021/11/13 14:12:19;;;;;;;91.55;64.95;;;;;;;;;;5080127;28;20410;-82
2021/11/13 14:14:49;;;;;;;92.72;65.13;;;;;;;;;;5080252;28;20400;-78
2021/11/13 14:17:21;;;;;;;95.20;66.78;;;;;;;;;;5080903;28;20488;-79
2021/11/13 14:19:53;;;;;;;93.43;67.18;;;;;;;;;;5077019;28;20404;-82
2021/11/13 14:22:23;;;;;;;88.57;65.22;;;;;;;;;;5077083;28;20982;-82
2021/11/13 14:25:01;;;;;;;94.53;66.15;;;;;;;;;;5077843;28;20435;-83
2021/11/13 14:27:40;;;;;;;95.93;66.65;;;;;;;;;;5071557;28;20405;-82
2021/11/13 14:30:11;;;;;;;96.07;67.30;;;;;;;;;;5072327;28;20408;-81